createdAt,value
2022-11-16T00:00:00.298Z,99358.59
2022-11-16T00:02:31.412Z,99359.50
2022-11-16T00:04:57.859Z,99359.53
2022-11-16T00:07:24.353Z,99356.09
2022-11-16T00:09:50.821Z,99363.00
2022-11-16T00:12:17.293Z,99362.16
2022-11-16T00:14:43.733Z,99357.88
2022-11-16T00:17:10.200Z,99351.00
2022-11-16T00:19:36.761Z,99355.28
2022-11-16T00:22:03.233Z,99366.47
2022-11-16T00:24:29.695Z,99363.03
2022-11-16T00:26:56.187Z,99363.94
2022-11-16T00:29:25.478Z,99361.47
2022-11-16T00:31:53.844Z,99367.41
2022-11-16T00:34:21.600Z,99367.41
2022-11-16T00:36:48.754Z,99369.13
2022-11-16T00:39:16.538Z,99369.13
2022-11-16T00:41:45.684Z,99367.38
2022-11-16T00:44:12.540Z,99381.13
2022-11-16T00:46:39.485Z,99374.28
2022-11-16T00:49:06.915Z,99376.78
2022-11-16T00:51:34.464Z,99369.88
2022-11-16T00:54:01.099Z,99370.69
2022-11-16T00:56:27.979Z,99377.56
2022-11-16T00:58:54.412Z,99375.81
2022-11-16T01:01:21.034Z,99369.78
2022-11-16T01:03:50.305Z,99382.63
2022-11-16T01:06:17.234Z,99374.00
2022-11-16T01:08:44.376Z,99365.44
2022-11-16T01:11:14.084Z,99374.00
2022-11-16T01:13:41.353Z,99363.69
2022-11-16T01:16:07.872Z,99360.19
2022-11-16T01:18:34.475Z,99349.88
2022-11-16T01:21:01.194Z,99367.09
2022-11-16T01:23:27.673Z,99358.47
2022-11-16T01:25:58.294Z,99356.75
2022-11-16T01:28:25.643Z,99360.19
2022-11-16T01:30:52.102Z,99361.91
2022-11-16T01:33:19.194Z,99351.56
2022-11-16T01:35:45.666Z,99356.75
2022-11-16T01:38:14.916Z,99340.38
2022-11-16T01:40:41.566Z,99349.84
2022-11-16T01:43:26.598Z,99343.84
2022-11-16T01:45:59.328Z,99340.38
2022-11-16T01:48:30.087Z,99328.41
2022-11-16T01:50:57.770Z,99345.56
2022-11-16T01:53:25.004Z,99343.84
2022-11-16T01:55:55.358Z,99348.13
2022-11-16T01:58:46.233Z,99341.22
2022-11-16T02:01:25.278Z,99342.88
2022-11-16T02:03:55.395Z,99341.16
2022-11-16T02:06:37.660Z,99331.66
2022-11-16T02:09:44.047Z,99319.66
2022-11-16T02:12:19.745Z,99335.84
2022-11-16T02:15:00.911Z,99319.59
2022-11-16T02:17:40.472Z,99329.00
2022-11-16T02:20:15.105Z,99329.75
2022-11-16T02:23:00.211Z,99335.88
2022-11-16T02:25:48.582Z,99345.38
2022-11-16T02:28:21.155Z,99333.34
2022-11-16T02:30:53.357Z,99342.00
2022-11-16T02:33:25.493Z,99339.50
2022-11-16T02:35:56.296Z,99324.13
2022-11-16T02:38:28.088Z,99342.16
2022-11-16T02:41:08.066Z,99336.16
2022-11-16T02:43:41.044Z,99340.63
2022-11-16T02:46:12.876Z,99340.63
2022-11-16T02:48:45.269Z,99346.53
2022-11-16T02:51:12.752Z,99338.81
2022-11-16T02:53:50.410Z,99326.91
2022-11-16T02:56:17.997Z,99340.63
2022-11-16T02:58:46.526Z,99337.13
2022-11-16T03:01:23.392Z,99338.84
2022-11-16T03:04:01.787Z,99334.59
2022-11-16T03:06:32.958Z,99326.91
2022-11-16T03:09:08.678Z,99324.38
2022-11-16T03:11:39.238Z,99341.50
2022-11-16T03:14:11.948Z,99339.88
2022-11-16T03:16:42.477Z,99342.53
2022-11-16T03:19:12.526Z,99326.31
2022-11-16T03:21:52.832Z,99334.06
2022-11-16T03:24:20.458Z,99322.09
2022-11-16T03:27:04.484Z,99317.00
2022-11-16T03:29:35.374Z,99306.00
2022-11-16T03:32:17.875Z,99313.69
2022-11-16T03:34:56.161Z,99306.09
2022-11-16T03:37:25.267Z,99319.84
2022-11-16T03:39:53.872Z,99318.13
2022-11-16T03:42:23.853Z,99321.66
2022-11-16T03:44:50.693Z,99318.22
2022-11-16T03:47:17.281Z,99319.97
2022-11-16T03:49:46.608Z,99313.16
2022-11-16T03:52:16.540Z,99317.47
2022-11-16T03:54:43.793Z,99313.22
2022-11-16T03:57:11.258Z,99303.78
2022-11-16T03:59:37.732Z,99302.94
2022-11-16T04:02:04.200Z,99286.59
2022-11-16T04:04:31.116Z,99291.78
2022-11-16T04:06:57.884Z,99299.50
2022-11-16T04:09:24.363Z,99298.69
2022-11-16T04:11:51.015Z,99285.75
2022-11-16T04:14:20.926Z,99289.25
2022-11-16T04:16:47.419Z,99296.91
2022-11-16T04:19:13.863Z,99290.81
2022-11-16T04:21:46.065Z,99275.44
2022-11-16T04:24:21.610Z,99273.69
2022-11-16T04:26:52.963Z,99273.59
2022-11-16T04:29:19.808Z,99272.75
2022-11-16T04:31:46.342Z,99268.44
2022-11-16T04:34:12.840Z,99282.28
2022-11-16T04:36:44.787Z,99277.97
2022-11-16T04:39:12.029Z,99282.28
2022-11-16T04:41:38.784Z,99273.69
2022-11-16T04:44:05.648Z,99271.13
2022-11-16T04:46:33.837Z,99273.69
2022-11-16T04:49:00.448Z,99284.03
2022-11-16T04:51:26.945Z,99278.00
2022-11-16T04:53:53.492Z,99280.59
2022-11-16T04:56:22.243Z,99281.44
2022-11-16T04:58:49.055Z,99284.03
2022-11-16T05:01:15.663Z,99279.72
2022-11-16T05:03:42.892Z,99284.03
2022-11-16T05:06:09.319Z,99290.97
2022-11-16T05:08:36.089Z,99287.53
2022-11-16T05:11:04.375Z,99288.41
2022-11-16T05:13:31.770Z,99287.53
2022-11-16T05:15:58.296Z,99278.97
2022-11-16T05:18:25.616Z,99285.88
2022-11-16T05:20:52.034Z,99281.59
2022-11-16T05:23:18.673Z,99280.75
2022-11-16T05:25:45.150Z,99272.16
2022-11-16T05:28:11.925Z,99267.06
2022-11-16T05:30:40.803Z,99260.19
2022-11-16T05:33:07.702Z,99260.22
2022-11-16T05:35:38.326Z,99253.38
2022-11-16T05:38:04.860Z,99259.41
2022-11-16T05:40:34.933Z,99256.00
2022-11-16T05:43:01.445Z,99250.00
2022-11-16T05:45:31.800Z,99249.16
2022-11-16T05:48:00.038Z,99249.16
2022-11-16T05:50:26.542Z,99250.03
2022-11-16T05:53:04.946Z,99246.59
2022-11-16T05:55:34.873Z,99252.63
2022-11-16T05:58:01.847Z,99246.59
2022-11-16T06:00:28.353Z,99256.03
2022-11-16T06:02:55.370Z,99248.31
2022-11-16T06:05:26.788Z,99253.47
2022-11-16T06:07:54.394Z,99255.16
2022-11-16T06:10:22.209Z,99255.16
2022-11-16T06:12:50.823Z,99259.47
2022-11-16T06:15:17.870Z,99259.47
2022-11-16T06:17:44.496Z,99257.78
2022-11-16T06:20:11.932Z,99245.75
2022-11-16T06:22:39.267Z,99244.03
2022-11-16T06:25:06.565Z,99244.84
2022-11-16T06:27:37.281Z,99236.28
2022-11-16T06:30:04.390Z,99237.06
2022-11-16T06:32:32.976Z,99246.53
2022-11-16T06:34:59.637Z,99234.44
2022-11-16T06:37:26.413Z,99243.00
2022-11-16T06:39:52.947Z,99240.41
2022-11-16T06:42:19.446Z,99240.34
2022-11-16T06:44:46.193Z,99238.63
2022-11-16T06:47:15.373Z,99234.31
2022-11-16T06:49:42.146Z,99229.94
2022-11-16T06:52:15.883Z,99229.06
2022-11-16T06:54:42.338Z,99238.47
2022-11-16T06:57:08.822Z,99237.56
2022-11-16T06:59:35.497Z,99243.53
2022-11-16T07:02:02.005Z,99245.22
2022-11-16T07:04:32.420Z,99239.19
2022-11-16T07:06:59.281Z,99240.00
2022-11-16T07:09:26.419Z,99245.16
2022-11-16T07:11:53.038Z,99237.38
2022-11-16T07:14:20.654Z,99233.94
2022-11-16T07:16:47.158Z,99243.34
2022-11-16T07:19:13.769Z,99238.16
2022-11-16T07:21:41.160Z,99243.25
2022-11-16T07:24:13.038Z,99237.22
2022-11-16T07:26:39.555Z,99240.56
2022-11-16T07:29:10.890Z,99235.41
2022-11-16T07:31:42.111Z,99248.28
2022-11-16T07:34:46.571Z,99243.09
2022-11-16T07:37:15.722Z,99248.28
2022-11-16T07:39:43.319Z,99250.00
2022-11-16T07:42:09.950Z,99254.31
2022-11-16T07:45:05.916Z,99256.88
2022-11-16T07:47:37.514Z,99252.53
2022-11-16T07:50:06.836Z,99252.50
2022-11-16T07:52:35.218Z,99258.50
2022-11-16T07:55:07.160Z,99254.13
2022-11-16T07:57:34.383Z,99254.06
2022-11-16T08:00:05.841Z,99252.28
2022-11-16T08:02:45.042Z,99250.47
2022-11-16T08:05:17.408Z,99251.22
2022-11-16T08:07:44.304Z,99248.53
2022-11-16T08:10:11.279Z,99251.03
2022-11-16T08:12:38.889Z,99251.00
2022-11-16T08:15:06.683Z,99254.44
2022-11-16T08:17:33.185Z,99244.97
2022-11-16T08:19:59.680Z,99240.69
2022-11-16T08:22:26.205Z,99245.88
2022-11-16T08:24:52.658Z,99239.84
2022-11-16T08:27:19.109Z,99239.88
2022-11-16T08:29:50.267Z,99233.84
2022-11-16T08:32:16.723Z,99229.66
2022-11-16T08:34:43.790Z,99232.16
2022-11-16T08:37:10.486Z,99233.81
2022-11-16T08:39:43.485Z,99233.78
2022-11-16T08:42:09.987Z,99242.31
2022-11-16T08:44:37.690Z,99245.69
2022-11-16T08:47:08.857Z,99250.69
2022-11-16T08:49:48.309Z,99251.41
2022-11-16T08:52:16.912Z,99259.91
2022-11-16T08:54:43.776Z,99250.31
2022-11-16T08:57:10.838Z,99244.16
2022-11-16T08:59:39.264Z,99237.25
2022-11-16T09:02:10.367Z,99244.91
2022-11-16T09:04:37.360Z,99241.41
2022-11-16T09:07:03.997Z,99242.22
2022-11-16T09:09:30.519Z,99240.44
2022-11-16T09:11:57.035Z,99241.28
2022-11-16T09:14:23.526Z,99246.41
2022-11-16T09:16:49.938Z,99245.50
2022-11-16T09:19:16.403Z,99242.84
2022-11-16T09:21:43.100Z,99242.78
2022-11-16T09:24:09.904Z,99240.13
2022-11-16T09:26:36.351Z,99240.06
2022-11-16T09:29:02.832Z,99245.16
2022-11-16T09:31:32.413Z,99237.47
2022-11-16T09:33:59.190Z,99243.28
2022-11-16T09:36:27.644Z,99239.69
2022-11-16T09:42:13.796Z,99230.66
2022-11-16T09:45:04.763Z,99237.16
2022-11-16T09:47:47.241Z,99236.88
2022-11-16T09:50:45.982Z,99233.16
2022-11-16T09:53:45.378Z,99225.13
2022-11-16T09:56:22.635Z,99229.22
2022-11-16T09:59:15.004Z,99230.56
2022-11-16T10:01:54.996Z,99226.81
2022-11-16T10:04:37.812Z,99216.38
2022-11-16T10:07:12.202Z,99220.31
2022-11-16T10:09:38.902Z,99222.69
2022-11-16T10:12:23.741Z,99210.53
2022-11-16T10:14:59.213Z,99219.88
2022-11-16T10:17:49.846Z,99223.28
2022-11-16T10:20:53.513Z,99230.31
2022-11-16T10:23:29.479Z,99227.78
2022-11-16T10:26:02.462Z,99217.50
2022-11-16T10:28:49.862Z,99217.63
2022-11-16T10:31:30.751Z,99223.72
2022-11-16T10:34:01.543Z,99220.44
2022-11-16T10:36:32.350Z,99233.22
2022-11-16T10:39:00.324Z,99226.25
2022-11-16T10:41:41.964Z,99225.28
2022-11-16T10:44:31.710Z,99230.25
2022-11-16T10:47:19.536Z,99219.09
2022-11-16T10:49:53.378Z,99231.81
2022-11-16T10:52:19.903Z,99225.75
2022-11-16T10:54:46.304Z,99224.03
2022-11-16T10:57:12.805Z,99231.03
2022-11-16T10:59:43.547Z,99225.91
2022-11-16T11:02:24.968Z,99212.16
2022-11-16T11:05:03.712Z,99208.59
2022-11-16T11:07:33.004Z,99193.75
2022-11-16T11:09:59.545Z,99187.50
2022-11-16T11:12:27.153Z,99184.78
2022-11-16T11:15:06.654Z,99183.06
2022-11-16T11:17:35.503Z,99170.88
2022-11-16T11:20:04.983Z,99179.22
2022-11-16T11:22:51.897Z,99178.31
2022-11-16T11:25:30.453Z,99183.50
2022-11-16T11:28:16.607Z,99168.81
2022-11-16T11:31:03.140Z,99172.31
2022-11-16T11:33:34.967Z,99178.31
2022-11-16T11:36:20.703Z,99166.41
2022-11-16T11:39:12.139Z,99171.44
2022-11-16T11:41:44.435Z,99159.34
2022-11-16T11:44:13.889Z,99165.16
2022-11-16T11:47:35.190Z,99177.13
2022-11-16T11:49:41.112Z,99169.31
2022-11-16T11:52:19.019Z,99180.19
2022-11-16T11:54:46.643Z,99177.34
2022-11-16T11:57:16.591Z,99176.25
2022-11-16T11:59:43.073Z,99176.69
2022-11-16T12:02:43.065Z,99185.06
2022-11-16T12:05:34.405Z,99182.19
2022-11-16T12:08:27.037Z,99184.59
2022-11-16T12:11:07.362Z,99191.38
2022-11-16T12:13:58.721Z,99188.72
2022-11-16T12:17:02.379Z,99186.97
2022-11-16T12:19:40.631Z,99177.38
2022-11-16T12:22:37.908Z,99178.22
2022-11-16T12:25:17.564Z,99168.50
2022-11-16T12:28:08.880Z,99163.13
2022-11-16T12:30:52.344Z,99150.81
2022-11-16T12:33:37.297Z,99162.56
2022-11-16T12:36:28.808Z,99150.31
2022-11-16T12:39:14.026Z,99137.09
2022-11-16T12:42:02.083Z,99135.91
2022-11-16T12:45:00.759Z,99144.00
2022-11-16T12:47:56.630Z,99133.09
2022-11-16T12:50:26.153Z,99131.97
2022-11-16T12:52:52.516Z,99139.41
2022-11-16T12:55:44.001Z,99136.53
2022-11-16T12:58:34.762Z,99143.31
2022-11-16T13:01:20.266Z,99144.38
2022-11-16T13:03:54.351Z,99131.56
2022-11-16T13:06:31.039Z,99115.31
2022-11-16T13:09:06.670Z,99111.63
2022-11-16T13:11:40.157Z,99107.25
2022-11-16T13:14:19.378Z,99112.41
2022-11-16T13:16:47.219Z,99109.63
2022-11-16T13:19:16.420Z,99091.53
2022-11-16T13:21:58.915Z,99099.22
2022-11-16T13:24:52.453Z,99092.19
2022-11-16T13:27:53.276Z,99073.88
2022-11-16T13:30:26.969Z,99083.25
2022-11-16T13:33:15.326Z,99085.75
2022-11-16T13:35:41.806Z,99069.16
2022-11-16T13:38:11.583Z,99057.13
2022-11-16T13:40:38.212Z,99065.47
2022-11-16T13:43:10.590Z,99061.06
2022-11-16T13:45:51.168Z,99061.91
2022-11-16T13:48:35.981Z,99067.06
2022-11-16T13:51:20.170Z,99036.94
2022-11-16T13:56:49.265Z,99041.03
2022-11-16T13:59:16.430Z,99035.00
2022-11-16T14:02:23.024Z,99025.53
2022-11-16T14:04:59.407Z,99016.22
2022-11-16T14:07:43.343Z,99021.25
2022-11-16T14:10:11.737Z,99022.16
2022-11-16T14:12:38.150Z,99022.28
2022-11-16T14:15:15.641Z,99017.34
2022-11-16T14:17:55.297Z,99002.09
2022-11-16T14:20:30.792Z,99001.38
2022-11-16T14:23:30.438Z,98991.94
2022-11-16T14:26:24.372Z,98973.81
2022-11-16T14:29:10.618Z,98968.59
2022-11-16T14:31:54.019Z,98960.91
2022-11-16T14:34:40.974Z,98964.59
2022-11-16T14:37:22.541Z,98969.28
2022-11-16T14:39:57.405Z,98957.53
2022-11-16T14:42:38.174Z,98945.88
2022-11-16T14:45:47.094Z,98950.59
2022-11-16T14:48:19.931Z,98948.41
2022-11-16T14:51:02.347Z,98946.00
2022-11-16T14:53:29.379Z,98952.31
2022-11-16T14:56:07.193Z,98942.28
2022-11-16T14:58:33.709Z,98943.28
2022-11-16T15:01:03.007Z,98940.91
2022-11-16T15:03:45.553Z,98927.41
2022-11-16T15:06:15.928Z,98929.28
2022-11-16T15:08:48.018Z,98925.97
2022-11-16T15:11:26.209Z,98914.19
2022-11-16T15:13:54.262Z,98921.97
2022-11-16T15:16:20.742Z,98923.94
2022-11-16T15:19:01.590Z,98917.97
2022-11-16T15:21:28.653Z,98925.88
2022-11-16T15:24:23.435Z,98913.91
2022-11-16T15:26:43.024Z,98905.44
2022-11-16T15:29:16.514Z,98906.56
2022-11-16T15:31:43.357Z,98913.50
2022-11-16T15:34:19.817Z,98912.75
2022-11-16T15:36:47.025Z,98910.22
2022-11-16T15:39:26.961Z,98912.97
2022-11-16T15:41:56.426Z,98907.00
2022-11-16T15:44:28.034Z,98907.03
2022-11-16T15:46:55.986Z,98907.97
2022-11-16T15:49:36.053Z,98902.91
2022-11-16T15:52:03.010Z,98904.66
2022-11-16T15:54:35.065Z,98889.34
2022-11-16T15:57:09.822Z,98902.19
2022-11-16T15:59:37.246Z,98899.66
2022-11-16T16:02:04.576Z,98895.31
2022-11-16T16:04:31.176Z,98888.38
2022-11-16T16:06:59.645Z,98879.09
2022-11-16T16:09:38.199Z,98881.75
2022-11-16T16:12:21.430Z,98876.47
2022-11-16T16:14:49.831Z,98868.75
2022-11-16T16:17:29.079Z,98865.34
2022-11-16T16:20:06.579Z,98856.88
2022-11-16T16:22:35.689Z,98866.22
2022-11-16T16:25:04.019Z,98858.47
2022-11-16T16:27:31.765Z,98848.22
2022-11-16T16:30:02.716Z,98849.91
2022-11-16T16:32:31.280Z,98840.47
2022-11-16T16:34:59.673Z,98843.13
2022-11-16T16:37:28.685Z,98839.00
2022-11-16T16:39:55.247Z,98843.13
2022-11-16T16:42:22.057Z,98837.19
2022-11-16T16:44:49.251Z,98838.94
2022-11-16T16:47:17.239Z,98838.13
2022-11-16T16:49:43.756Z,98827.00
2022-11-16T16:52:13.587Z,98834.81
2022-11-16T16:54:40.814Z,98830.53
2022-11-16T16:57:12.787Z,98822.81
2022-11-16T16:59:39.275Z,98817.66
2022-11-16T17:02:05.747Z,98812.47
2022-11-16T17:04:32.646Z,98810.69
2022-11-16T17:06:59.117Z,98814.97
2022-11-16T17:09:25.597Z,98811.50
2022-11-16T17:11:52.003Z,98808.84
2022-11-16T17:14:18.473Z,98805.38
2022-11-16T17:16:44.889Z,98805.38
2022-11-16T17:19:11.375Z,98788.13
2022-11-16T17:21:37.833Z,98782.97
2022-11-16T17:24:04.763Z,98778.69
2022-11-16T17:26:31.156Z,98774.41
2022-11-16T17:28:58.134Z,98768.50
2022-11-16T17:31:25.748Z,98762.50
2022-11-16T17:33:52.512Z,98753.06
2022-11-16T17:36:19.474Z,98748.16
2022-11-16T17:38:46.243Z,98761.06
2022-11-16T17:41:15.850Z,98749.00
2022-11-16T17:43:43.828Z,98753.38
2022-11-16T17:46:13.062Z,98739.72
2022-11-16T17:48:41.599Z,98738.72
2022-11-16T17:51:08.482Z,98736.94
2022-11-16T17:53:36.103Z,98724.88
2022-11-16T17:56:03.723Z,98721.34
2022-11-16T17:58:30.839Z,98713.47
2022-11-16T18:00:58.125Z,98710.88
2022-11-16T18:03:25.099Z,98698.06
2022-11-16T18:05:51.761Z,98691.00
2022-11-16T18:08:18.214Z,98693.53
2022-11-16T18:10:44.638Z,98690.06
2022-11-16T18:13:11.116Z,98678.81
2022-11-16T18:15:42.380Z,98678.81
2022-11-16T18:18:09.063Z,98670.13
2022-11-16T18:20:37.174Z,98672.72
2022-11-16T18:23:04.495Z,98655.47
2022-11-16T18:25:33.941Z,98651.13
2022-11-16T18:28:00.396Z,98646.81
2022-11-16T18:30:26.792Z,98638.09
2022-11-16T18:32:53.259Z,98638.09
2022-11-16T18:35:19.697Z,98627.72
2022-11-16T18:37:46.152Z,98624.25
2022-11-16T18:40:13.133Z,98619.06
2022-11-16T18:42:39.815Z,98612.19
2022-11-16T18:45:06.932Z,98615.56
2022-11-16T18:47:33.390Z,98605.22
2022-11-16T18:49:59.795Z,98604.31
2022-11-16T18:52:26.256Z,98600.81
2022-11-16T18:54:52.650Z,98593.88
2022-11-16T18:57:19.165Z,98581.78
2022-11-16T18:59:45.598Z,98573.16
2022-11-16T19:02:12.342Z,98576.50
2022-11-16T19:04:38.886Z,98567.13
2022-11-16T19:07:05.804Z,98556.63
2022-11-16T19:09:32.238Z,98549.75
2022-11-16T19:11:58.710Z,98547.94
2022-11-16T19:14:25.124Z,98531.50
2022-11-16T19:16:56.917Z,98522.03
2022-11-16T19:19:24.087Z,98520.22
2022-11-16T19:21:50.499Z,98512.38
2022-11-16T19:24:16.942Z,98510.63
2022-11-16T19:26:43.390Z,98504.50
2022-11-16T19:29:09.852Z,98492.38
2022-11-16T19:31:36.306Z,98496.72
2022-11-16T19:34:05.384Z,98485.50
2022-11-16T19:36:33.420Z,98482.91
2022-11-16T19:39:00.043Z,98482.09
2022-11-16T19:41:27.618Z,98475.25
2022-11-16T19:43:55.790Z,98470.06
2022-11-16T19:46:22.990Z,98463.22
2022-11-16T19:48:50.248Z,98462.41
2022-11-16T19:51:19.548Z,98444.53
2022-11-16T19:53:46.736Z,98447.00
2022-11-16T19:56:15.212Z,98435.00
2022-11-16T19:58:42.337Z,98425.59
2022-11-16T20:01:23.340Z,98414.47
2022-11-16T20:03:49.895Z,98410.19
2022-11-16T20:06:18.156Z,98403.44
2022-11-16T20:08:52.769Z,98395.78
2022-11-16T20:11:24.759Z,98378.03
2022-11-16T20:13:53.234Z,98376.44
2022-11-16T20:16:21.891Z,98378.03
2022-11-16T20:18:49.451Z,98365.19
2022-11-16T20:21:21.938Z,98357.56
2022-11-16T20:23:49.159Z,98353.28
2022-11-16T20:26:15.731Z,98342.91
2022-11-16T20:28:43.398Z,98335.25
2022-11-16T20:31:15.472Z,98325.81
2022-11-16T20:33:43.104Z,98318.06
2022-11-16T20:36:11.669Z,98297.63
2022-11-16T20:38:39.096Z,98304.38
2022-11-16T20:41:13.974Z,98287.28
2022-11-16T20:43:41.499Z,98281.19
2022-11-16T20:46:09.702Z,98258.06
2022-11-16T20:48:37.221Z,98255.41
2022-11-16T20:51:04.671Z,98246.78
2022-11-16T20:53:31.675Z,98233.94
2022-11-16T20:55:58.457Z,98235.72
2022-11-16T20:58:25.234Z,98223.75
2022-11-16T21:00:51.659Z,98220.47
2022-11-16T21:03:18.216Z,98220.63
2022-11-16T21:05:46.390Z,98205.28
2022-11-16T21:08:13.037Z,98201.97
2022-11-16T21:10:39.678Z,98187.47
2022-11-16T21:13:06.983Z,98188.53
2022-11-16T21:15:33.454Z,98175.84
2022-11-16T21:17:59.914Z,98171.66
2022-11-16T21:20:28.125Z,98152.00
2022-11-16T21:22:55.114Z,98148.78
2022-11-16T21:25:21.630Z,98146.28
2022-11-16T21:27:48.080Z,98124.19
2022-11-16T21:30:14.549Z,98115.63
2022-11-16T21:32:41.008Z,98109.75
2022-11-16T21:35:07.784Z,98102.16
2022-11-16T21:37:34.252Z,98087.69
2022-11-16T21:40:00.758Z,98077.41
2022-11-16T21:42:27.450Z,98079.28
2022-11-16T21:44:53.871Z,98063.88
2022-11-16T21:47:21.115Z,98060.53
2022-11-16T21:50:08.685Z,98059.75
2022-11-16T21:52:34.044Z,98054.72
2022-11-16T21:55:00.471Z,98033.25
2022-11-16T21:57:26.963Z,98032.41
2022-11-16T21:59:53.434Z,98022.97
2022-11-16T22:02:19.858Z,97998.09
2022-11-16T22:04:46.262Z,97986.97
2022-11-16T22:07:15.621Z,97989.69
2022-11-16T22:09:42.099Z,97976.88
2022-11-16T22:12:08.486Z,97972.59
2022-11-16T22:14:34.955Z,97965.88
2022-11-16T22:17:01.340Z,97952.19
2022-11-16T22:19:27.775Z,97938.50
2022-11-16T22:21:54.218Z,97929.16
2022-11-16T22:24:20.761Z,97933.50
2022-11-16T22:26:47.207Z,97930.06
2022-11-16T22:29:13.668Z,97916.38
2022-11-16T22:31:40.059Z,97894.03
2022-11-16T22:34:06.504Z,97885.50
2022-11-16T22:36:32.935Z,97876.97
2022-11-16T22:39:00.256Z,97876.97
2022-11-16T22:41:26.679Z,97875.25
2022-11-16T22:43:53.176Z,97859.66
2022-11-16T22:46:19.615Z,97849.47
2022-11-16T22:48:46.083Z,97859.75
2022-11-16T22:51:24.972Z,97836.78
2022-11-16T22:53:56.089Z,97851.13
2022-11-16T22:56:23.146Z,97852.72
2022-11-16T22:58:50.038Z,97847.66
2022-11-16T23:01:16.587Z,97824.41
2022-11-16T23:03:43.130Z,97831.16
2022-11-16T23:06:09.749Z,97823.34
2022-11-16T23:08:36.707Z,97813.75
2022-11-16T23:11:14.743Z,97798.41
2022-11-16T23:13:41.191Z,97805.88
2022-11-16T23:16:07.777Z,97798.06
2022-11-16T23:18:34.250Z,97785.91
2022-11-16T23:21:00.646Z,97771.09
2022-11-16T23:23:27.093Z,97777.03
2022-11-16T23:25:53.531Z,97755.44
2022-11-16T23:28:20.275Z,97748.47
2022-11-16T23:30:46.691Z,97743.13
2022-11-16T23:33:13.454Z,97725.81
2022-11-16T23:35:39.898Z,97723.00
2022-11-16T23:38:07.610Z,97717.72
2022-11-16T23:40:36.555Z,97709.88
2022-11-16T23:43:03.789Z,97701.06
2022-11-16T23:45:30.229Z,97690.56
2022-11-16T23:47:56.709Z,97681.00
2022-11-16T23:50:23.282Z,97674.81
2022-11-16T23:52:49.805Z,97671.28
2022-11-16T23:55:16.380Z,97666.88
2022-11-16T23:57:42.844Z,97653.94
